St Lucie County International Airport
KFPR : now visible

Airfield :











YOU CAN JOIN US ON...

 
LOGIN :

Register | Disclaimer

   EN    FR    IT 

 









Legend :    VFR   Marginal VFR   IFR   Intensive IFR   Very Intensive IFR
Visi :
Ceiling :
>= 8 km
>= 3000ft
5 to 8 km
1000 to 3000 ft
1500m to 5 km
500 to 1000 ft
800 to 1500m
200 to 500 ft
< 800m
< 200 ft
Symbols :   Thunderstorms  Fog  Heavy snow  Heavy precipitations  Wind > 20 kt







- Airport Elevation : 24 ft
- IATA code : FPR


KFPR - St Lucie County International

CURRENT METAR :
  • 191235Z 17013G24KT 1 3/4SM +RA FEW020 BKN032 OVC070 24/21 A2991 RMK AO2 RAB30 P0009 T02440211

EXPIRED METARs :
  • 191153Z 15006KT 10SM FEW075 OVC100 25/21 A2990 RMK AO2 SLP123 T02500206 10250 20233 53001
  • 191053Z AUTO 16006KT 10SM SCT080 24/20 A2989 RMK AO2 SLP119 T02390200
  • 190953Z AUTO 16005KT 10SM FEW080 23/20 A2989 RMK AO2 SLP121 T02330200

TAF KFPR
Valid from the 19 at 12:00 until the 20 at 12:00 UTC


191221Z 1912/2012 16012KT P6SM VCSH BKN080 WS015/18038KT
TEMPO 1912/1913 3SM SHRA SCT025 BKN035
FM191400 18020G30KT P6SM SCT015 BKN040 OVC060
FM191900 20024G34KT P6SM VCTS BKN035CB BKN060 OVC150
TEMPO 1921/1923 2SM +TSRA BKN025CB OVC035
FM200000 26008KT P6SM VCSH BKN025
TEMPO 2001/2005 3SM SHRA
KZMA FIR / North America



MET'MAP, your aeronautical weather chart ! - Copyright ORBIFLY December 2007 - Disclaimer

ORBIFLY MET'MAP TEAM :

Programming & Development : Alexandra Zaïnal
Concept & Development : Baudouin d'Aumeries
Co-Development & Prog : Marc-Olivier Méhu
Technical & hardware support : Manuel Goepfert

Contact : metmap@orbifly.com




SOURCES & CREDITS :

   NOAA       Earth
Advisory